createdAt,value
2019-05-10T00:00:13.894Z,99.90
2019-05-10T00:03:00.353Z,99.90
2019-05-10T00:05:47.398Z,99.90
2019-05-10T00:08:33.787Z,99.90
2019-05-10T00:11:06.683Z,99.90
2019-05-10T00:13:45.611Z,99.90
2019-05-10T00:16:14.081Z,99.90
2019-05-10T00:18:42.566Z,99.90
2019-05-10T00:21:10.959Z,99.90
2019-05-10T00:23:39.359Z,99.90
2019-05-10T00:26:07.789Z,99.90
2019-05-10T00:28:36.234Z,99.90
2019-05-10T00:31:04.698Z,99.90
2019-05-10T00:33:33.195Z,99.90
2019-05-10T00:36:01.603Z,99.90
2019-05-10T00:38:30.007Z,99.90
2019-05-10T00:40:58.423Z,99.90
2019-05-10T00:43:26.823Z,99.90
2019-05-10T00:45:55.225Z,99.90
2019-05-10T00:48:23.670Z,99.90
2019-05-10T00:50:52.080Z,99.90
2019-05-10T00:53:20.490Z,99.90
2019-05-10T00:55:48.885Z,99.90
2019-05-10T00:58:17.346Z,99.90
2019-05-10T01:00:45.742Z,99.90
2019-05-10T01:03:14.152Z,99.90
2019-05-10T01:05:42.577Z,99.90
2019-05-10T01:08:10.967Z,99.90
2019-05-10T01:10:39.406Z,99.90
2019-05-10T01:13:07.779Z,99.90
2019-05-10T01:15:36.189Z,99.90
2019-05-10T01:18:23.938Z,99.90
2019-05-10T01:20:52.351Z,99.90
2019-05-10T01:23:20.821Z,99.90
2019-05-10T01:25:49.258Z,99.90
2019-05-10T01:28:17.663Z,99.90
2019-05-10T01:30:46.090Z,99.90
2019-05-10T01:33:14.558Z,99.90
2019-05-10T01:35:42.987Z,99.90
2019-05-10T01:38:11.382Z,99.90
2019-05-10T01:40:39.820Z,99.90
2019-05-10T01:43:08.208Z,99.90
2019-05-10T01:45:36.621Z,99.90
2019-05-10T01:48:05.092Z,99.90
2019-05-10T01:50:33.507Z,99.90
2019-05-10T01:53:01.898Z,99.90
2019-05-10T01:55:30.329Z,99.90
2019-05-10T01:57:58.748Z,99.90
2019-05-10T02:00:27.173Z,99.90
2019-05-10T02:02:55.569Z,99.90
2019-05-10T02:05:23.971Z,99.90
2019-05-10T02:07:52.376Z,99.90
2019-05-10T02:10:20.942Z,99.90
2019-05-10T02:12:49.323Z,99.90
2019-05-10T02:15:17.875Z,99.90
2019-05-10T02:17:46.335Z,99.90
2019-05-10T02:20:15.102Z,99.90
2019-05-10T02:22:43.499Z,99.90
2019-05-10T02:25:12.490Z,99.90
2019-05-10T02:27:40.878Z,99.90
2019-05-10T02:30:09.769Z,99.90
2019-05-10T02:32:38.168Z,99.90
2019-05-10T02:35:08.300Z,99.90
2019-05-10T02:37:36.720Z,99.90
2019-05-10T02:40:08.323Z,99.90
2019-05-10T02:42:36.750Z,99.90
2019-05-10T02:45:07.520Z,99.90
2019-05-10T02:47:35.904Z,99.90
2019-05-10T02:50:07.130Z,99.90
2019-05-10T02:52:35.529Z,99.90
2019-05-10T02:55:05.579Z,99.90
2019-05-10T02:57:34.391Z,99.90
2019-05-10T03:00:04.636Z,99.90
2019-05-10T03:02:34.771Z,99.90
2019-05-10T03:05:04.436Z,99.90
2019-05-10T03:07:35.896Z,99.90
2019-05-10T03:10:08.438Z,99.90
2019-05-10T03:12:41.523Z,99.90
2019-05-10T03:15:11.953Z,99.90
2019-05-10T03:17:41.905Z,99.90
2019-05-10T03:20:12.524Z,99.90
2019-05-10T03:22:44.318Z,99.90
2019-05-10T03:25:13.475Z,99.90
2019-05-10T03:27:42.212Z,99.90
2019-05-10T03:30:10.798Z,99.90
2019-05-10T03:32:39.249Z,99.90
2019-05-10T03:35:08.345Z,99.90
2019-05-10T03:37:37.027Z,99.90
2019-05-10T03:40:08.061Z,99.90
2019-05-10T03:42:36.512Z,99.90
2019-05-10T03:45:06.957Z,99.90
2019-05-10T03:47:35.400Z,99.90
2019-05-10T03:50:05.686Z,99.90
2019-05-10T03:52:34.080Z,99.90
2019-05-10T03:55:02.500Z,99.90
2019-05-10T03:57:30.894Z,99.90
2019-05-10T03:59:59.329Z,99.90
2019-05-10T04:02:27.705Z,99.90
2019-05-10T04:04:56.112Z,99.90
2019-05-10T04:07:24.507Z,99.90
2019-05-10T04:09:52.922Z,99.90
2019-05-10T04:12:21.302Z,99.90
2019-05-10T04:14:49.703Z,99.90
2019-05-10T04:17:18.092Z,99.90
2019-05-10T04:19:46.491Z,99.90
2019-05-10T04:22:14.893Z,99.90
2019-05-10T04:24:43.321Z,99.90
2019-05-10T04:27:29.535Z,99.90
2019-05-10T04:29:41.846Z,99.90
2019-05-10T04:32:10.251Z,99.90
2019-05-10T04:34:38.687Z,99.90
2019-05-10T04:37:07.081Z,99.90
2019-05-10T04:39:35.482Z,99.90
2019-05-10T04:42:03.983Z,99.90
2019-05-10T04:44:32.396Z,99.90
2019-05-10T04:47:00.778Z,99.90
2019-05-10T04:49:29.202Z,99.90
2019-05-10T04:51:57.623Z,99.90
2019-05-10T04:54:26.015Z,99.90
2019-05-10T04:56:54.418Z,99.90
2019-05-10T04:59:22.806Z,99.90
2019-05-10T05:01:51.207Z,99.90
2019-05-10T05:04:19.607Z,99.90
2019-05-10T05:06:48.011Z,99.90
2019-05-10T05:09:16.398Z,99.90
2019-05-10T05:11:44.894Z,99.90
2019-05-10T05:14:13.283Z,99.90
2019-05-10T05:16:41.688Z,99.90
2019-05-10T05:19:10.083Z,99.90
2019-05-10T05:21:38.966Z,99.90
2019-05-10T05:24:07.436Z,99.90
2019-05-10T05:26:35.836Z,99.90
2019-05-10T05:29:04.307Z,99.90
2019-05-10T05:31:32.993Z,99.90
2019-05-10T05:34:04.977Z,99.90
2019-05-10T05:36:31.551Z,99.90
2019-05-10T05:38:59.939Z,99.90
2019-05-10T05:41:31.679Z,99.90
2019-05-10T05:43:58.457Z,99.90
2019-05-10T05:46:26.920Z,99.90
2019-05-10T05:48:55.342Z,99.90
2019-05-10T05:51:23.742Z,99.90
2019-05-10T05:53:52.198Z,99.90
2019-05-10T05:56:20.636Z,99.90
2019-05-10T05:58:49.038Z,99.90
2019-05-10T06:01:26.343Z,99.90
2019-05-10T06:03:47.564Z,99.90
2019-05-10T06:06:21.603Z,99.90
2019-05-10T06:08:46.082Z,99.90
2019-05-10T06:11:14.497Z,99.90
2019-05-10T06:13:42.970Z,99.90
2019-05-10T06:16:13.220Z,99.90
2019-05-10T06:18:46.704Z,99.90
2019-05-10T06:21:11.609Z,99.90
2019-05-10T06:23:39.993Z,99.90
2019-05-10T06:26:21.334Z,99.90
2019-05-10T06:28:58.517Z,99.90
2019-05-10T06:31:08.654Z,99.90
2019-05-10T06:33:39.616Z,99.90
2019-05-10T06:36:07.183Z,99.90
2019-05-10T06:38:35.590Z,99.90
2019-05-10T06:41:03.994Z,99.90
2019-05-10T06:43:32.388Z,99.90
2019-05-10T06:46:00.804Z,99.90
2019-05-10T06:48:33.537Z,99.90
2019-05-10T06:51:02.824Z,99.90
2019-05-10T06:53:29.484Z,99.50
2019-05-10T06:55:57.880Z,99.50
2019-05-10T06:58:30.496Z,98.60
2019-05-10T07:00:56.398Z,98.70
2019-05-10T07:03:24.799Z,98.00
2019-05-10T07:05:53.204Z,98.60
2019-05-10T07:08:21.606Z,99.10
2019-05-10T07:10:50.010Z,99.30
2019-05-10T07:13:18.405Z,99.30
2019-05-10T07:15:46.809Z,97.70
2019-05-10T07:18:16.951Z,97.10
2019-05-10T07:20:45.351Z,97.20
2019-05-10T07:23:13.752Z,96.80
2019-05-10T07:25:43.644Z,97.00
2019-05-10T07:28:15.886Z,97.10
2019-05-10T07:30:42.392Z,96.80
2019-05-10T07:33:10.812Z,96.90
2019-05-10T07:35:39.206Z,97.20
2019-05-10T07:38:07.603Z,96.90
2019-05-10T07:40:35.998Z,97.00
2019-05-10T07:43:04.561Z,97.70
2019-05-10T07:45:32.969Z,97.60
2019-05-10T07:48:02.488Z,97.90
2019-05-10T07:50:31.565Z,97.20
2019-05-10T07:52:59.982Z,97.00
2019-05-10T07:55:30.043Z,97.10
2019-05-10T07:57:59.250Z,97.10
2019-05-10T08:00:28.840Z,96.80
2019-05-10T08:03:07.592Z,96.90
2019-05-10T08:05:29.588Z,96.90
2019-05-10T08:07:58.861Z,96.90
2019-05-10T08:10:29.067Z,97.00
2019-05-10T08:12:59.587Z,97.00
2019-05-10T08:15:32.609Z,97.00
2019-05-10T08:17:58.547Z,96.90
2019-05-10T08:20:42.211Z,96.50
2019-05-10T08:22:57.295Z,96.30
2019-05-10T08:25:29.199Z,95.70
2019-05-10T08:27:55.823Z,94.40
2019-05-10T08:30:41.203Z,93.90
2019-05-10T08:33:09.838Z,93.80
2019-05-10T08:35:38.772Z,93.50
2019-05-10T08:38:06.877Z,93.90
2019-05-10T08:40:37.977Z,94.00
2019-05-10T08:43:08.933Z,94.00
2019-05-10T08:45:38.964Z,93.40
2019-05-10T08:48:07.196Z,93.30
2019-05-10T08:50:49.651Z,93.30
2019-05-10T08:53:10.909Z,93.70
2019-05-10T08:55:36.081Z,93.90
2019-05-10T08:58:31.394Z,93.20
2019-05-10T09:01:11.056Z,93.50
2019-05-10T09:03:24.125Z,93.60
2019-05-10T09:05:52.681Z,92.70
2019-05-10T09:08:24.826Z,92.40
2019-05-10T09:10:52.982Z,92.20
2019-05-10T09:13:22.944Z,91.80
2019-05-10T09:15:56.454Z,91.80
2019-05-10T09:18:22.891Z,91.40
2019-05-10T09:20:54.108Z,91.50
2019-05-10T09:23:22.774Z,90.50
2019-05-10T09:25:52.027Z,85.60
2019-05-10T09:28:21.863Z,87.00
2019-05-10T09:30:59.878Z,86.60
2019-05-10T09:33:22.426Z,84.30
2019-05-10T09:35:54.693Z,83.70
2019-05-10T09:38:22.100Z,84.70
2019-05-10T09:40:55.939Z,85.00
2019-05-10T09:43:24.075Z,85.10
2019-05-10T09:45:53.073Z,84.20
2019-05-10T09:48:22.789Z,85.50
2019-05-10T09:50:55.160Z,86.10
2019-05-10T09:53:26.205Z,88.60
2019-05-10T09:56:01.734Z,88.80
2019-05-10T09:58:22.506Z,90.20
2019-05-10T10:00:51.163Z,88.70
2019-05-10T10:03:19.839Z,88.90
2019-05-10T10:05:48.483Z,90.00
2019-05-10T10:08:17.612Z,89.10
2019-05-10T10:10:47.546Z,90.00
2019-05-10T10:13:34.972Z,88.80
2019-05-10T10:15:49.850Z,87.20
2019-05-10T10:18:21.298Z,87.20
2019-05-10T10:20:48.096Z,85.40
2019-05-10T10:23:17.315Z,86.00
2019-05-10T10:25:48.215Z,86.50
2019-05-10T10:28:18.875Z,87.10
2019-05-10T10:30:50.476Z,87.70
2019-05-10T10:33:24.446Z,86.70
2019-05-10T10:35:48.086Z,87.80
2019-05-10T10:38:17.873Z,88.60
2019-05-10T10:40:46.435Z,87.20
2019-05-10T10:43:14.839Z,87.60
2019-05-10T10:45:43.235Z,87.40
2019-05-10T10:48:13.022Z,86.50
2019-05-10T10:50:44.478Z,85.60
2019-05-10T10:53:11.759Z,84.20
2019-05-10T10:55:40.528Z,83.30
2019-05-10T10:58:10.539Z,81.60
2019-05-10T11:00:39.403Z,80.30
2019-05-10T11:03:07.901Z,77.60
2019-05-10T11:05:36.367Z,78.90
2019-05-10T11:08:04.849Z,77.90
2019-05-10T11:10:33.331Z,77.80
2019-05-10T11:13:10.179Z,78.30
2019-05-10T11:15:35.817Z,78.60
2019-05-10T11:18:02.048Z,78.00
2019-05-10T11:20:31.783Z,77.70
2019-05-10T11:23:00.500Z,76.10
2019-05-10T11:25:28.919Z,74.70
2019-05-10T11:28:00.958Z,70.70
2019-05-10T11:30:27.536Z,69.90
2019-05-10T11:32:55.926Z,69.80
2019-05-10T11:35:31.015Z,64.60
2019-05-10T11:37:54.546Z,67.20
2019-05-10T11:40:30.535Z,71.90
2019-05-10T11:42:53.088Z,71.50
2019-05-10T11:45:26.313Z,72.40
2019-05-10T11:47:54.470Z,74.10
2019-05-10T11:50:31.388Z,73.00
2019-05-10T11:52:52.179Z,71.10
2019-05-10T11:55:21.638Z,72.10
2019-05-10T12:00:29.272Z,71.40
2019-05-10T12:03:11.311Z,69.70
2019-05-10T12:05:26.365Z,69.50
2019-05-10T12:07:51.709Z,69.80
2019-05-10T12:10:25.545Z,68.90
2019-05-10T12:13:06.175Z,68.80
2019-05-10T12:15:25.400Z,67.90
2019-05-10T12:17:58.665Z,69.60
2019-05-10T12:20:26.895Z,69.60
2019-05-10T12:22:52.360Z,66.20
2019-05-10T12:25:59.518Z,71.80
2019-05-10T12:26:27.366Z,66.50
2019-05-10T12:27:52.440Z,66.90
2019-05-10T12:30:21.635Z,67.60
2019-05-10T12:33:05.866Z,68.70
2019-05-10T12:35:21.295Z,68.60
2019-05-10T12:37:54.009Z,69.30
2019-05-10T12:40:23.786Z,69.60
2019-05-10T12:42:50.347Z,69.20
2019-05-10T12:45:23.024Z,69.40
2019-05-10T12:47:51.405Z,69.20
2019-05-10T12:50:20.060Z,68.90
2019-05-10T12:52:50.343Z,67.20
2019-05-10T12:55:18.600Z,65.30
2019-05-10T12:57:47.006Z,65.70
2019-05-10T13:00:16.849Z,65.30
2019-05-10T13:02:51.238Z,63.00
2019-05-10T13:05:16.062Z,60.70
2019-05-10T13:07:44.718Z,61.30
2019-05-10T13:10:13.317Z,60.70
2019-05-10T13:12:44.539Z,60.80
2019-05-10T13:15:12.127Z,61.50
2019-05-10T13:17:44.031Z,60.70
2019-05-10T13:20:11.301Z,61.10
2019-05-10T13:22:39.715Z,61.80
2019-05-10T13:25:08.651Z,60.90
2019-05-10T13:27:37.209Z,61.50
2019-05-10T13:30:08.115Z,61.90
2019-05-10T13:32:36.534Z,61.70
2019-05-10T13:35:06.160Z,62.30
2019-05-10T13:37:34.606Z,63.10
2019-05-10T13:40:08.062Z,65.80
2019-05-10T13:42:36.480Z,64.70
2019-05-10T13:45:04.273Z,64.90
2019-05-10T13:47:32.730Z,66.00
2019-05-10T13:50:01.148Z,65.90
2019-05-10T13:52:36.746Z,70.30
2019-05-10T13:54:59.657Z,75.10
2019-05-10T13:57:28.081Z,78.60
2019-05-10T13:59:57.437Z,82.20
2019-05-10T14:02:32.616Z,84.20
2019-05-10T14:04:56.175Z,86.30
2019-05-10T14:07:24.598Z,88.50
2019-05-10T14:09:52.989Z,90.40
2019-05-10T14:12:23.463Z,91.70
2019-05-10T14:14:55.427Z,93.20
2019-05-10T14:17:21.750Z,94.00
2019-05-10T14:19:50.197Z,94.50
2019-05-10T14:22:18.670Z,95.20
2019-05-10T14:24:53.258Z,95.40
2019-05-10T14:27:17.186Z,95.70
2019-05-10T14:29:45.587Z,95.70
2019-05-10T14:32:14.007Z,95.30
2019-05-10T14:34:44.081Z,93.70
2019-05-10T14:37:14.312Z,93.60
2019-05-10T14:39:42.666Z,92.80
2019-05-10T14:42:11.059Z,93.10
2019-05-10T14:44:39.506Z,90.60
2019-05-10T14:47:10.860Z,89.50
2019-05-10T14:49:42.085Z,87.00
2019-05-10T14:52:08.166Z,86.00
2019-05-10T14:54:43.759Z,86.60
2019-05-10T14:57:06.704Z,87.20
2019-05-10T14:59:35.106Z,86.70
2019-05-10T15:02:03.506Z,87.20
2019-05-10T15:04:47.395Z,86.80
2019-05-10T15:07:02.039Z,86.10
2019-05-10T15:09:30.460Z,86.90
2019-05-10T15:11:58.853Z,86.80
2019-05-10T15:14:27.251Z,86.00
2019-05-10T15:16:55.639Z,84.10
2019-05-10T15:19:28.578Z,82.30
2019-05-10T15:21:54.169Z,82.60
2019-05-10T15:24:22.582Z,82.60
2019-05-10T15:26:50.978Z,80.10
2019-05-10T15:29:22.411Z,79.70
2019-05-10T15:31:49.494Z,81.20
2019-05-10T15:34:17.907Z,81.50
2019-05-10T15:36:46.322Z,79.30
2019-05-10T15:39:14.770Z,77.90
2019-05-10T15:41:43.219Z,77.50
2019-05-10T15:44:12.091Z,77.50
2019-05-10T15:46:42.266Z,76.20
2019-05-10T15:49:13.619Z,76.50
2019-05-10T15:51:40.735Z,75.20
2019-05-10T15:54:09.170Z,73.20
2019-05-10T15:56:41.717Z,72.50
2019-05-10T15:59:12.961Z,72.30
2019-05-10T16:01:37.858Z,68.50
2019-05-10T16:04:06.266Z,67.50
2019-05-10T16:06:37.693Z,63.20
2019-05-10T16:09:16.801Z,59.80
2019-05-10T16:11:36.817Z,59.00
2019-05-10T16:14:05.814Z,57.20
2019-05-10T16:16:37.015Z,57.50
2019-05-10T16:19:04.331Z,56.60
2019-05-10T16:21:32.727Z,55.80
2019-05-10T16:24:01.123Z,54.50
2019-05-10T16:26:29.539Z,55.40
2019-05-10T16:29:01.991Z,56.40
2019-05-10T16:31:28.154Z,57.50
2019-05-10T16:33:56.551Z,59.40
2019-05-10T16:36:28.413Z,59.70
2019-05-10T16:38:55.068Z,60.30
2019-05-10T16:41:26.788Z,61.60
2019-05-10T16:43:57.995Z,62.80
2019-05-10T16:46:23.732Z,63.70
2019-05-10T16:48:52.132Z,63.80
2019-05-10T16:51:20.537Z,65.40
2019-05-10T16:53:48.926Z,64.00
2019-05-10T16:56:18.700Z,66.00
2019-05-10T16:58:52.415Z,66.80
2019-05-10T17:01:18.832Z,66.30
2019-05-10T17:03:51.147Z,66.50
2019-05-10T17:06:17.829Z,67.20
2019-05-10T17:08:46.211Z,68.00
2019-05-10T17:11:14.628Z,68.80
2019-05-10T17:13:43.243Z,70.00
2019-05-10T17:16:16.831Z,70.50
2019-05-10T17:18:41.860Z,69.90
2019-05-10T17:21:10.287Z,70.30
2019-05-10T17:23:41.528Z,70.20
2019-05-10T17:26:08.912Z,71.40
2019-05-10T17:28:37.425Z,71.60
2019-05-10T17:31:07.598Z,72.00
2019-05-10T17:33:36.676Z,72.50
2019-05-10T17:36:08.680Z,73.50
2019-05-10T17:38:36.257Z,73.90
2019-05-10T17:41:04.657Z,74.70
2019-05-10T17:43:33.058Z,74.60
2019-05-10T17:46:01.462Z,74.40
2019-05-10T17:48:29.866Z,73.20
2019-05-10T17:50:58.291Z,72.60
2019-05-10T17:53:26.673Z,72.20
2019-05-10T17:55:57.492Z,72.40
2019-05-10T17:58:27.809Z,72.10
2019-05-10T18:00:55.330Z,73.00
2019-05-10T18:03:23.745Z,72.20
2019-05-10T18:05:53.464Z,71.70
2019-05-10T18:08:22.064Z,72.40
2019-05-10T18:10:50.481Z,73.00
2019-05-10T18:13:18.866Z,73.50
2019-05-10T18:15:47.265Z,74.30
2019-05-10T18:18:15.670Z,75.20
2019-05-10T18:20:44.579Z,76.10
2019-05-10T18:23:20.429Z,77.90
2019-05-10T18:25:43.390Z,79.40
2019-05-10T18:28:11.782Z,80.80
2019-05-10T18:30:40.193Z,81.60
2019-05-10T18:33:12.174Z,82.30
2019-05-10T18:35:38.726Z,84.10
2019-05-10T18:38:07.121Z,85.10
2019-05-10T18:40:35.514Z,85.90
2019-05-10T18:43:05.736Z,88.00
2019-05-10T18:45:34.094Z,89.80
2019-05-10T18:48:02.502Z,91.50
2019-05-10T18:50:30.909Z,92.30
2019-05-10T18:52:59.306Z,93.70
2019-05-10T18:55:27.711Z,95.40
2019-05-10T18:57:56.135Z,96.80
2019-05-10T19:00:25.322Z,98.30
2019-05-10T19:02:55.103Z,99.50
2019-05-10T19:05:24.938Z,99.90
2019-05-10T19:08:03.284Z,99.90
2019-05-10T19:10:24.281Z,99.90
2019-05-10T19:12:59.889Z,99.90
2019-05-10T19:15:22.801Z,99.90
2019-05-10T19:17:51.203Z,99.90
2019-05-10T19:20:19.597Z,99.90
2019-05-10T19:22:48.016Z,99.90
2019-05-10T19:25:16.399Z,99.90
2019-05-10T19:27:50.347Z,99.90
2019-05-10T19:30:20.248Z,99.90
2019-05-10T19:32:45.283Z,99.90
2019-05-10T19:35:13.733Z,99.90
2019-05-10T19:37:42.139Z,99.90
2019-05-10T19:40:11.184Z,99.90
2019-05-10T19:42:42.974Z,99.90
2019-05-10T19:45:12.806Z,99.90
2019-05-10T19:47:39.917Z,99.90
2019-05-10T19:50:08.760Z,99.90
2019-05-10T19:52:37.163Z,99.90
2019-05-10T19:55:05.886Z,99.90
2019-05-10T19:57:34.299Z,99.90
2019-05-10T20:00:02.669Z,99.90
2019-05-10T20:02:31.067Z,99.90
2019-05-10T20:04:59.476Z,99.90
2019-05-10T20:07:43.237Z,99.90
2019-05-10T20:09:57.990Z,99.90
2019-05-10T20:12:26.395Z,99.90
2019-05-10T20:14:54.810Z,99.90
2019-05-10T20:17:23.274Z,99.90
2019-05-10T20:19:51.717Z,99.90
2019-05-10T20:22:20.101Z,99.90
2019-05-10T20:24:48.507Z,99.90
2019-05-10T20:27:16.919Z,99.90
2019-05-10T20:29:45.322Z,99.90
2019-05-10T20:32:13.715Z,99.90
2019-05-10T20:34:42.109Z,99.90
2019-05-10T20:37:10.508Z,99.90
2019-05-10T20:39:38.926Z,99.90
2019-05-10T20:42:07.325Z,99.90
2019-05-10T20:44:35.733Z,99.90
2019-05-10T20:47:04.185Z,99.90
2019-05-10T20:49:32.614Z,99.90
2019-05-10T20:52:01.034Z,99.90
2019-05-10T20:54:29.426Z,99.90
2019-05-10T20:56:57.822Z,99.90
2019-05-10T20:59:26.228Z,99.90
2019-05-10T21:01:54.628Z,99.90
2019-05-10T21:04:23.029Z,99.90
2019-05-10T21:06:51.415Z,99.90
2019-05-10T21:09:19.822Z,99.90
2019-05-10T21:11:48.220Z,99.90
2019-05-10T21:14:16.613Z,99.90
2019-05-10T21:16:45.023Z,99.90
2019-05-10T21:19:13.420Z,99.90
2019-05-10T21:21:41.828Z,99.90
2019-05-10T21:24:10.230Z,99.90
2019-05-10T21:26:38.627Z,99.90
2019-05-10T21:29:07.025Z,99.90
2019-05-10T21:31:35.411Z,99.90
2019-05-10T21:34:09.870Z,99.90
2019-05-10T21:36:34.090Z,99.90
2019-05-10T21:39:02.881Z,99.90
2019-05-10T21:41:31.273Z,99.90
2019-05-10T21:43:59.696Z,99.90
2019-05-10T21:46:28.101Z,99.90
2019-05-10T21:48:56.511Z,99.90
2019-05-10T21:51:24.906Z,99.90
2019-05-10T21:53:53.332Z,99.90
2019-05-10T21:56:21.718Z,99.90
2019-05-10T21:58:50.124Z,99.90
2019-05-10T22:01:18.649Z,99.90
2019-05-10T22:03:47.040Z,99.90
2019-05-10T22:06:15.455Z,99.90
2019-05-10T22:08:49.420Z,99.90
2019-05-10T22:11:13.976Z,99.90
2019-05-10T22:13:42.431Z,99.90
2019-05-10T22:16:10.870Z,99.90
2019-05-10T22:18:39.328Z,99.90
2019-05-10T22:21:07.727Z,99.90
2019-05-10T22:23:36.129Z,99.90
2019-05-10T22:26:04.606Z,99.90
2019-05-10T22:28:33.006Z,99.90
2019-05-10T22:31:01.399Z,99.90
2019-05-10T22:33:29.785Z,99.90
2019-05-10T22:35:58.200Z,99.90
2019-05-10T22:38:26.605Z,99.90
2019-05-10T22:40:55.034Z,99.90
2019-05-10T22:43:23.490Z,99.90
2019-05-10T22:45:51.946Z,99.90
2019-05-10T22:48:20.333Z,99.90
2019-05-10T22:50:48.738Z,99.90
2019-05-10T22:53:17.203Z,99.90
2019-05-10T22:55:45.616Z,99.90
2019-05-10T22:58:14.012Z,99.90
2019-05-10T23:00:42.477Z,99.90
2019-05-10T23:03:10.877Z,99.90
2019-05-10T23:05:39.297Z,99.90
2019-05-10T23:08:07.684Z,99.90
2019-05-10T23:10:36.100Z,99.90
2019-05-10T23:13:04.486Z,99.90
2019-05-10T23:15:32.892Z,99.90
2019-05-10T23:18:01.287Z,99.90
2019-05-10T23:20:29.687Z,99.90
2019-05-10T23:22:58.435Z,99.90
2019-05-10T23:25:26.834Z,99.90
2019-05-10T23:27:55.224Z,99.90
2019-05-10T23:30:23.634Z,99.90
2019-05-10T23:32:52.020Z,99.90
2019-05-10T23:35:20.426Z,99.90
2019-05-10T23:37:48.814Z,99.90
2019-05-10T23:40:17.375Z,99.90
2019-05-10T23:42:45.759Z,99.90
2019-05-10T23:45:14.225Z,99.90
2019-05-10T23:47:42.639Z,99.90
2019-05-10T23:50:11.347Z,99.90
2019-05-10T23:52:39.751Z,99.90
2019-05-10T23:55:08.441Z,99.90
2019-05-10T23:57:36.818Z,99.90
